Time;durP1;ratioP1;P1;durP2;ratioP2;P2;SDS_P1;SDS_P2;PMS_P1;PMS_P2;Temp;Humidity;BMP_temperature;BMP_pressure;BME280_temperature;BME280_humidity;BME280_pressure;Samples;Min_cycle;Max_cycle;Signal;HPM_P1;HPM_P2
2022/03/28 00:02:26;;;;;;;;;;;13.40;56.30;;;;;;5047480;28;19944;-76
2022/03/28 00:04:54;;;;;;;;;;;13.40;56.40;;;;;;5049384;28;19933;-75
2022/03/28 00:07:20;;;;;;;;;;;13.30;56.20;;;;;;5046779;28;19959;-76
2022/03/28 00:09:47;;;;;;;;;;;13.30;56.50;;;;;;5047424;28;19933;-75
2022/03/28 00:12:14;;;;;;;;;;;13.30;56.60;;;;;;5049584;28;19929;-76
2022/03/28 00:14:40;;;;;;;;;;;13.20;56.70;;;;;;5043295;28;19932;-75
2022/03/28 00:17:07;;;;;;;;;;;13.20;56.80;;;;;;5051629;28;19928;-75
2022/03/28 00:19:33;;;;;;;;;;;13.10;56.70;;;;;;5050688;28;19928;-75
2022/03/28 00:22:01;;;;;;;;;;;13.10;56.90;;;;;;5049681;28;19928;-76
2022/03/28 00:24:28;;;;;;;;;;;13.10;57.10;;;;;;5051566;28;19929;-75
2022/03/28 00:26:55;;;;;;;;;;;13.10;57.20;;;;;;5045371;28;19928;-76
2022/03/28 00:29:22;;;;;;;;;;;13.00;57.20;;;;;;5046591;28;19974;-75
2022/03/28 00:31:49;;;;;;;;;;;13.00;57.30;;;;;;5043842;28;20421;-75
2022/03/28 00:34:21;;;;;;;;;;;12.90;57.20;;;;;;5051393;28;19928;-75
2022/03/28 00:36:48;;;;;;;;;;;12.90;57.20;;;;;;5050979;28;19983;-75
2022/03/28 00:39:19;;;;;;;;;;;12.80;57.20;;;;;;5048783;28;19928;-76
2022/03/28 00:41:45;;;;;;;;;;;12.80;57.40;;;;;;5049088;28;19929;-75
2022/03/28 00:44:12;;;;;;;;;;;12.80;57.40;;;;;;5047978;28;19937;-76
2022/03/28 00:46:39;;;;;;;;;;;12.80;57.40;;;;;;5048747;28;19939;-76
2022/03/28 00:49:05;;;;;;;;;;;12.70;57.40;;;;;;5049563;28;19929;-76
2022/03/28 00:51:32;;;;;;;;;;;12.70;57.50;;;;;;5054197;28;20794;-75
2022/03/28 00:53:59;;;;;;;;;;;12.70;57.60;;;;;;5048094;28;21491;-75
2022/03/28 00:56:27;;;;;;;;;;;12.60;57.60;;;;;;5056044;28;20411;-76
2022/03/28 00:58:54;;;;;;;;;;;12.60;57.60;;;;;;5047979;28;20290;-75
2022/03/28 01:01:20;;;;;;;;;;;12.60;57.70;;;;;;5053269;28;19951;-75
2022/03/28 01:03:47;;;;;;;;;;;12.50;57.70;;;;;;5052594;28;20297;-75
2022/03/28 01:06:13;;;;;;;;;;;12.50;57.80;;;;;;5047328;28;19932;-76
2022/03/28 01:08:40;;;;;;;;;;;12.50;57.80;;;;;;5046274;28;19929;-76
2022/03/28 01:11:09;;;;;;;;;;;12.40;57.80;;;;;;5052163;28;19932;-76
2022/03/28 01:13:38;;;;;;;;;;;12.40;57.90;;;;;;5046360;28;19928;-76
2022/03/28 01:16:05;;;;;;;;;;;12.40;57.90;;;;;;5049469;28;20475;-75
2022/03/28 01:18:31;;;;;;;;;;;12.30;58.00;;;;;;5047495;28;19932;-76
2022/03/28 01:20:59;;;;;;;;;;;12.30;58.00;;;;;;5046272;28;19932;-76
2022/03/28 01:23:25;;;;;;;;;;;12.30;58.10;;;;;;5049910;28;19935;-76
2022/03/28 01:25:53;;;;;;;;;;;12.20;58.10;;;;;;5047129;28;19955;-76
2022/03/28 01:28:20;;;;;;;;;;;12.20;58.10;;;;;;5046576;28;20268;-77
2022/03/28 01:30:47;;;;;;;;;;;12.20;58.20;;;;;;5043045;28;19929;-76
2022/03/28 01:33:13;;;;;;;;;;;12.10;58.30;;;;;;5047075;28;19935;-76
2022/03/28 01:35:40;;;;;;;;;;;12.10;58.30;;;;;;5047218;28;20416;-76
2022/03/28 01:38:09;;;;;;;;;;;12.00;58.10;;;;;;5046337;28;19929;-76
2022/03/28 01:40:37;;;;;;;;;;;12.00;58.20;;;;;;5045740;28;19944;-76
2022/03/28 01:43:04;;;;;;;;;;;12.00;58.30;;;;;;5045762;28;19931;-76
2022/03/28 01:45:30;;;;;;;;;;;12.00;58.20;;;;;;5048601;28;20333;-76
2022/03/28 01:47:57;;;;;;;;;;;12.00;58.20;;;;;;5046142;28;19929;-76
2022/03/28 01:50:24;;;;;;;;;;;11.90;58.40;;;;;;5048718;28;20418;-76
2022/03/28 01:52:51;;;;;;;;;;;11.90;58.40;;;;;;5044724;28;19929;-76
2022/03/28 01:55:19;;;;;;;;;;;11.80;58.60;;;;;;5047884;28;19936;-76
2022/03/28 01:57:46;;;;;;;;;;;11.80;58.70;;;;;;5044342;28;19939;-76
2022/03/28 02:00:13;;;;;;;;;;;11.70;58.70;;;;;;5043837;28;20549;-76
2022/03/28 02:02:40;;;;;;;;;;;11.70;58.70;;;;;;5052125;28;19933;-76
2022/03/28 02:05:11;;;;;;;;;;;11.70;58.70;;;;;;5046984;28;19929;-75
2022/03/28 02:07:38;;;;;;;;;;;11.70;58.70;;;;;;5049406;28;19929;-76
2022/03/28 02:10:05;;;;;;;;;;;11.70;58.80;;;;;;5045233;28;19928;-76
2022/03/28 02:12:33;;;;;;;;;;;11.60;58.80;;;;;;5049813;28;19933;-76
2022/03/28 02:14:59;;;;;;;;;;;11.60;58.90;;;;;;5044936;28;19939;-76
2022/03/28 02:17:26;;;;;;;;;;;11.60;58.90;;;;;;5049593;28;19929;-76
2022/03/28 02:19:53;;;;;;;;;;;11.50;58.80;;;;;;5046545;28;19939;-76
2022/03/28 02:22:19;;;;;;;;;;;11.50;59.00;;;;;;5045515;28;20240;-76
2022/03/28 02:24:46;;;;;;;;;;;11.50;59.00;;;;;;5045853;28;19936;-76
2022/03/28 02:27:12;;;;;;;;;;;11.40;59.00;;;;;;5044871;28;19937;-76
2022/03/28 02:29:40;;;;;;;;;;;11.40;59.00;;;;;;5045516;28;20227;-76
2022/03/28 02:32:08;;;;;;;;;;;11.30;59.00;;;;;;5043431;28;19936;-76
2022/03/28 02:34:34;;;;;;;;;;;11.40;59.20;;;;;;5045806;28;19932;-76
2022/03/28 02:37:01;;;;;;;;;;;11.40;59.10;;;;;;5047578;28;19929;-76
2022/03/28 02:39:27;;;;;;;;;;;11.30;59.20;;;;;;5048128;28;19940;-76
2022/03/28 02:41:54;;;;;;;;;;;11.30;59.20;;;;;;5045627;28;20447;-77
2022/03/28 02:44:20;;;;;;;;;;;11.20;59.30;;;;;;5043824;28;20381;-76
2022/03/28 02:46:49;;;;;;;;;;;11.20;59.20;;;;;;5043240;28;20309;-76
2022/03/28 02:49:15;;;;;;;;;;;11.10;59.30;;;;;;5043996;28;19990;-76
2022/03/28 02:51:43;;;;;;;;;;;11.10;59.40;;;;;;5039821;28;19939;-76
2022/03/28 02:54:09;;;;;;;;;;;11.10;59.50;;;;;;5046623;28;19928;-76
2022/03/28 02:56:36;;;;;;;;;;;11.00;59.60;;;;;;5050864;28;19934;-76
2022/03/28 02:59:03;;;;;;;;;;;11.00;59.70;;;;;;5043734;28;19933;-76
2022/03/28 03:01:29;;;;;;;;;;;11.00;59.80;;;;;;5042501;28;20300;-76
2022/03/28 03:03:57;;;;;;;;;;;10.90;59.80;;;;;;5045967;28;20443;-76
2022/03/28 03:06:24;;;;;;;;;;;10.90;59.80;;;;;;5048171;28;19928;-77
2022/03/28 03:08:51;;;;;;;;;;;10.90;59.80;;;;;;5046189;28;19929;-75
2022/03/28 03:11:17;;;;;;;;;;;10.80;59.90;;;;;;5042468;28;20030;-76
2022/03/28 03:13:44;;;;;;;;;;;10.80;60.00;;;;;;5041962;28;19929;-76
2022/03/28 03:16:11;;;;;;;;;;;10.80;60.10;;;;;;5043890;28;19963;-76
2022/03/28 03:18:37;;;;;;;;;;;10.70;60.20;;;;;;5050351;28;19940;-76
2022/03/28 03:21:05;;;;;;;;;;;10.70;60.30;;;;;;5044242;28;19929;-75
2022/03/28 03:23:32;;;;;;;;;;;10.60;60.30;;;;;;5043762;28;19929;-76
2022/03/28 03:25:58;;;;;;;;;;;10.60;60.30;;;;;;5046427;28;19928;-76
2022/03/28 03:28:25;;;;;;;;;;;10.60;60.30;;;;;;5039665;28;19929;-76
2022/03/28 03:30:52;;;;;;;;;;;10.60;60.30;;;;;;5043847;28;20142;-76
2022/03/28 03:33:18;;;;;;;;;;;10.60;60.40;;;;;;5046279;28;19936;-75
2022/03/28 03:35:45;;;;;;;;;;;10.50;60.40;;;;;;5051139;28;19929;-75
2022/03/28 03:38:13;;;;;;;;;;;10.60;60.50;;;;;;5047384;28;19936;-74
2022/03/28 03:40:39;;;;;;;;;;;10.50;60.50;;;;;;5048445;28;20448;-76
2022/03/28 03:43:06;;;;;;;;;;;10.40;60.40;;;;;;5048130;28;19939;-76
2022/03/28 03:45:33;;;;;;;;;;;10.40;61.20;;;;;;5048311;28;19968;-76
2022/03/28 03:47:59;;;;;;;;;;;10.40;60.60;;;;;;5050841;28;19928;-76
2022/03/28 03:50:26;;;;;;;;;;;10.40;60.70;;;;;;5048963;28;19935;-75
2022/03/28 03:52:54;;;;;;;;;;;10.30;60.70;;;;;;5048425;28;20023;-76
2022/03/28 03:55:22;;;;;;;;;;;10.30;60.90;;;;;;5048951;28;20024;-76
2022/03/28 03:57:49;;;;;;;;;;;10.20;60.80;;;;;;5046993;28;19940;-76
2022/03/28 04:00:16;;;;;;;;;;;10.20;60.90;;;;;;5044052;28;20002;-76
2022/03/28 04:02:42;;;;;;;;;;;10.20;61.00;;;;;;5054477;28;19929;-75
2022/03/28 04:05:09;;;;;;;;;;;10.20;61.10;;;;;;5046776;28;20298;-76
2022/03/28 04:07:36;;;;;;;;;;;10.20;61.20;;;;;;5049108;28;19935;-76
2022/03/28 04:10:03;;;;;;;;;;;10.10;61.10;;;;;;5045633;28;19933;-76
2022/03/28 04:12:31;;;;;;;;;;;10.10;61.30;;;;;;5047856;28;19968;-76
2022/03/28 04:15:00;;;;;;;;;;;10.00;61.50;;;;;;5048619;28;20064;-75
2022/03/28 04:17:28;;;;;;;;;;;10.00;61.50;;;;;;5048884;28;19951;-76
2022/03/28 04:19:55;;;;;;;;;;;10.00;61.50;;;;;;5052554;28;20451;-76
2022/03/28 04:22:21;;;;;;;;;;;10.00;61.60;;;;;;5047944;28;19936;-76
2022/03/28 04:24:48;;;;;;;;;;;9.90;61.70;;;;;;5047380;28;19929;-75
2022/03/28 04:27:14;;;;;;;;;;;9.90;61.90;;;;;;5046762;28;19929;-75
2022/03/28 04:29:42;;;;;;;;;;;9.80;61.70;;;;;;5044779;28;20377;-76
2022/03/28 04:32:09;;;;;;;;;;;9.80;61.80;;;;;;5049215;28;19932;-76
2022/03/28 04:34:36;;;;;;;;;;;9.80;62.00;;;;;;5048274;28;19929;-75
2022/03/28 04:37:03;;;;;;;;;;;9.70;62.00;;;;;;5051845;28;19932;-75
2022/03/28 04:39:29;;;;;;;;;;;9.70;62.00;;;;;;5046871;28;19929;-76
2022/03/28 04:41:56;;;;;;;;;;;9.70;62.10;;;;;;5049905;28;19928;-76
2022/03/28 04:44:23;;;;;;;;;;;9.60;62.10;;;;;;5045975;28;20309;-76
2022/03/28 04:46:51;;;;;;;;;;;9.60;62.30;;;;;;5046023;28;20603;-75
2022/03/28 04:49:17;;;;;;;;;;;9.60;62.30;;;;;;5046120;28;19936;-76
2022/03/28 04:51:44;;;;;;;;;;;9.60;62.30;;;;;;5048983;28;19948;-76
2022/03/28 04:54:11;;;;;;;;;;;9.60;62.40;;;;;;5048517;28;20415;-76
2022/03/28 04:56:37;;;;;;;;;;;9.60;62.40;;;;;;5049052;28;19929;-74
2022/03/28 04:59:06;;;;;;;;;;;9.50;62.40;;;;;;5047381;28;21304;-76
2022/03/28 05:01:33;;;;;;;;;;;9.50;62.40;;;;;;5048779;28;20027;-75
2022/03/28 05:04:00;;;;;;;;;;;9.50;62.50;;;;;;5048957;28;19936;-76
2022/03/28 05:06:27;;;;;;;;;;;9.50;62.50;;;;;;5046912;28;19932;-75
2022/03/28 05:08:54;;;;;;;;;;;9.50;62.50;;;;;;5049511;28;19929;-75
2022/03/28 05:11:22;;;;;;;;;;;9.40;62.50;;;;;;5048182;28;19928;-75
2022/03/28 05:13:49;;;;;;;;;;;9.40;62.40;;;;;;5044780;28;20329;-75
2022/03/28 05:16:15;;;;;;;;;;;9.40;62.50;;;;;;5045197;28;19929;-76
2022/03/28 05:18:42;;;;;;;;;;;9.40;62.50;;;;;;5055167;28;19928;-76
2022/03/28 05:21:10;;;;;;;;;;;9.40;62.50;;;;;;5049004;28;19929;-75
2022/03/28 05:23:37;;;;;;;;;;;9.30;63.00;;;;;;5049555;28;19929;-75
2022/03/28 05:26:04;;;;;;;;;;;9.30;62.50;;;;;;5046209;28;20309;-75
2022/03/28 05:28:31;;;;;;;;;;;9.30;62.40;;;;;;5041143;28;19932;-76
2022/03/28 05:30:58;;;;;;;;;;;9.30;62.50;;;;;;5045223;28;20383;-74
2022/03/28 05:33:25;;;;;;;;;;;9.20;62.60;;;;;;5048262;28;20194;-75
2022/03/28 05:35:52;;;;;;;;;;;9.20;62.80;;;;;;5045305;28;19937;-75
2022/03/28 05:38:20;;;;;;;;;;;9.20;62.80;;;;;;5047924;28;19935;-74
2022/03/28 05:40:46;;;;;;;;;;;9.20;63.00;;;;;;5044500;28;20617;-75
2022/03/28 05:43:13;;;;;;;;;;;9.10;62.90;;;;;;5045762;28;19928;-76
2022/03/28 05:45:39;;;;;;;;;;;9.10;63.00;;;;;;5044114;28;19932;-76
2022/03/28 05:48:06;;;;;;;;;;;9.10;63.10;;;;;;5047219;28;19936;-78
2022/03/28 05:50:33;;;;;;;;;;;9.10;63.30;;;;;;5046653;28;19928;-75
2022/03/28 05:53:00;;;;;;;;;;;8.70;64.50;;;;;;5041954;28;19929;-77
2022/03/28 05:55:27;;;;;;;;;;;8.30;66.50;;;;;;5045665;28;19982;-76
2022/03/28 05:57:54;;;;;;;;;;;8.20;67.30;;;;;;5046897;28;19933;-76
2022/03/28 06:00:21;;;;;;;;;;;8.20;67.50;;;;;;5041542;28;19951;-76
2022/03/28 06:02:48;;;;;;;;;;;8.20;67.50;;;;;;5044133;28;19982;-77
2022/03/28 06:05:14;;;;;;;;;;;8.20;67.40;;;;;;5044596;28;19940;-76
2022/03/28 06:07:41;;;;;;;;;;;8.20;67.10;;;;;;5054722;28;20400;-76
2022/03/28 06:10:08;;;;;;;;;;;8.30;66.90;;;;;;5044371;28;20569;-77
2022/03/28 06:12:36;;;;;;;;;;;8.30;66.70;;;;;;5047024;28;19951;-76
2022/03/28 06:15:03;;;;;;;;;;;8.30;66.60;;;;;;5050862;28;19928;-76
2022/03/28 06:17:29;;;;;;;;;;;8.40;66.50;;;;;;5051114;28;20396;-76
2022/03/28 06:19:56;;;;;;;;;;;8.40;66.30;;;;;;5049767;28;19976;-76
2022/03/28 06:22:22;;;;;;;;;;;8.40;66.20;;;;;;5047206;28;19933;-76
2022/03/28 06:24:49;;;;;;;;;;;8.40;66.10;;;;;;5043144;28;19929;-77
2022/03/28 06:27:15;;;;;;;;;;;8.40;66.30;;;;;;5044364;28;20565;-77
2022/03/28 06:29:43;;;;;;;;;;;8.40;66.20;;;;;;5045974;28;19940;-77
2022/03/28 06:32:10;;;;;;;;;;;8.40;66.20;;;;;;5044669;28;20004;-77
2022/03/28 06:34:36;;;;;;;;;;;8.40;66.10;;;;;;5052643;28;19928;-77
2022/03/28 06:37:03;;;;;;;;;;;8.40;66.20;;;;;;5052751;28;19929;-76
2022/03/28 06:39:30;;;;;;;;;;;8.40;66.10;;;;;;5045276;28;19936;-76
2022/03/28 06:41:56;;;;;;;;;;;8.40;66.10;;;;;;5046590;28;19928;-76
2022/03/28 06:44:23;;;;;;;;;;;8.40;66.20;;;;;;5047461;28;19928;-76
2022/03/28 06:46:51;;;;;;;;;;;8.40;66.10;;;;;;5045213;28;20196;-76
2022/03/28 06:49:17;;;;;;;;;;;8.40;66.10;;;;;;5048528;28;19935;-76
2022/03/28 06:51:44;;;;;;;;;;;8.40;66.10;;;;;;5043600;28;19929;-76
2022/03/28 06:54:14;;;;;;;;;;;8.40;66.10;;;;;;5046438;28;19928;-76
2022/03/28 06:56:41;;;;;;;;;;;8.40;66.10;;;;;;5046002;28;19929;-76
2022/03/28 06:59:08;;;;;;;;;;;8.40;66.10;;;;;;5047205;28;19935;-76
2022/03/28 07:01:35;;;;;;;;;;;8.40;66.10;;;;;;5045467;28;19928;-76
2022/03/28 07:04:04;;;;;;;;;;;8.40;66.10;;;;;;5051478;28;19929;-77
2022/03/28 07:06:30;;;;;;;;;;;8.40;66.00;;;;;;5048429;28;20028;-77
2022/03/28 07:08:57;;;;;;;;;;;8.40;66.10;;;;;;5051824;28;19929;-76
2022/03/28 07:11:25;;;;;;;;;;;8.40;66.10;;;;;;5051852;28;19936;-77
2022/03/28 07:13:52;;;;;;;;;;;8.40;66.00;;;;;;5044673;28;19969;-77
2022/03/28 07:16:18;;;;;;;;;;;8.40;66.10;;;;;;5043825;28;19936;-76
2022/03/28 07:18:45;;;;;;;;;;;8.40;66.00;;;;;;5040260;28;19936;-77
2022/03/28 07:21:13;;;;;;;;;;;8.40;66.10;;;;;;5044533;28;19929;-77
2022/03/28 07:23:40;;;;;;;;;;;8.40;66.00;;;;;;5043590;28;19935;-76
2022/03/28 07:26:08;;;;;;;;;;;8.40;65.90;;;;;;5041282;28;19929;-77
2022/03/28 07:28:38;;;;;;;;;;;8.40;65.90;;;;;;5040300;28;19929;-76
2022/03/28 07:31:08;;;;;;;;;;;8.40;65.70;;;;;;5040836;28;20760;-77
2022/03/28 07:33:34;;;;;;;;;;;8.40;65.70;;;;;;5043069;28;20399;-75
2022/03/28 07:36:01;;;;;;;;;;;8.40;65.60;;;;;;5041320;28;19928;-77
2022/03/28 07:38:29;;;;;;;;;;;8.40;65.60;;;;;;5045459;28;19928;-77
2022/03/28 07:40:55;;;;;;;;;;;8.40;65.50;;;;;;5040791;28;19929;-77
2022/03/28 07:43:22;;;;;;;;;;;8.40;65.50;;;;;;5046425;28;20392;-76
2022/03/28 07:45:50;;;;;;;;;;;8.40;65.40;;;;;;5041029;28;20575;-77
2022/03/28 07:48:17;;;;;;;;;;;8.40;65.50;;;;;;5044000;28;20044;-77
2022/03/28 07:50:45;;;;;;;;;;;8.40;65.50;;;;;;5040622;28;19929;-77
2022/03/28 07:53:12;;;;;;;;;;;8.40;65.50;;;;;;5046006;28;19997;-77
2022/03/28 07:55:40;;;;;;;;;;;8.40;66.10;;;;;;5042861;28;20023;-76
2022/03/28 07:58:06;;;;;;;;;;;8.50;65.40;;;;;;5038206;28;19972;-77
2022/03/28 08:00:33;;;;;;;;;;;8.50;65.40;;;;;;5045088;28;20263;-76
2022/03/28 08:03:00;;;;;;;;;;;8.50;65.20;;;;;;5046277;28;20618;-77
2022/03/28 08:05:27;;;;;;;;;;;8.50;65.20;;;;;;5042542;28;20412;-76
2022/03/28 08:07:54;;;;;;;;;;;8.50;65.10;;;;;;5041839;28;20304;-78
2022/03/28 08:10:21;;;;;;;;;;;8.60;65.00;;;;;;5044248;28;20460;-77
2022/03/28 08:12:49;;;;;;;;;;;8.60;64.90;;;;;;5042388;28;19929;-76
2022/03/28 08:15:17;;;;;;;;;;;8.60;64.70;;;;;;5042701;28;19967;-77
2022/03/28 08:17:44;;;;;;;;;;;8.60;64.80;;;;;;5041730;28;19951;-77
2022/03/28 08:20:11;;;;;;;;;;;8.70;65.50;;;;;;5045707;28;19932;-76
2022/03/28 08:22:38;;;;;;;;;;;8.70;64.80;;;;;;5042809;28;19932;-76
2022/03/28 08:25:05;;;;;;;;;;;8.70;64.70;;;;;;5050351;28;20385;-77
2022/03/28 08:27:31;;;;;;;;;;;8.80;64.50;;;;;;5044890;28;19932;-75
2022/03/28 08:29:59;;;;;;;;;;;8.80;64.40;;;;;;5046228;28;19952;-76
2022/03/28 08:32:26;;;;;;;;;;;8.80;64.50;;;;;;5047827;28;19929;-76
2022/03/28 08:34:52;;;;;;;;;;;8.90;64.70;;;;;;5048216;28;19932;-77
2022/03/28 08:37:19;;;;;;;;;;;8.90;64.60;;;;;;5050226;28;19929;-77
2022/03/28 08:39:46;;;;;;;;;;;9.00;64.50;;;;;;5048619;28;20124;-76
2022/03/28 08:42:13;;;;;;;;;;;9.00;64.40;;;;;;5055059;28;20404;-76
2022/03/28 08:44:39;;;;;;;;;;;9.10;64.40;;;;;;5047962;28;19935;-77
2022/03/28 08:47:08;;;;;;;;;;;9.10;64.30;;;;;;5049955;28;19935;-75
2022/03/28 08:49:35;;;;;;;;;;;9.10;64.00;;;;;;5046828;28;19932;-76
2022/03/28 08:52:02;;;;;;;;;;;9.20;63.90;;;;;;5048703;28;19928;-76
2022/03/28 08:54:29;;;;;;;;;;;9.30;64.10;;;;;;5051044;28;19929;-76
2022/03/28 08:56:55;;;;;;;;;;;9.40;63.80;;;;;;5049547;28;19940;-75
2022/03/28 08:59:22;;;;;;;;;;;9.40;63.60;;;;;;5046073;28;19935;-76
2022/03/28 09:01:49;;;;;;;;;;;9.50;63.60;;;;;;5047108;28;19935;-76
2022/03/28 09:04:17;;;;;;;;;;;9.60;63.30;;;;;;5053007;28;19928;-76
2022/03/28 09:06:44;;;;;;;;;;;9.60;63.20;;;;;;5049104;28;20317;-75
2022/03/28 09:09:12;;;;;;;;;;;9.70;63.10;;;;;;5053245;28;19928;-76
2022/03/28 09:11:38;;;;;;;;;;;9.70;62.90;;;;;;5050606;28;19929;-76
2022/03/28 09:14:05;;;;;;;;;;;9.80;62.70;;;;;;5049316;28;19932;-76
2022/03/28 09:16:34;;;;;;;;;;;9.80;62.60;;;;;;5047067;28;19929;-76
2022/03/28 09:19:07;;;;;;;;;;;9.90;62.50;;;;;;5051098;28;19929;-75
2022/03/28 09:21:36;;;;;;;;;;;9.90;62.30;;;;;;5052733;28;19928;-76
2022/03/28 09:24:04;;;;;;;;;;;10.00;62.10;;;;;;5040231;28;19925;-76
2022/03/28 09:26:31;;;;;;;;;;;10.10;62.10;;;;;;5047718;28;19929;-76
2022/03/28 09:29:00;;;;;;;;;;;10.10;62.00;;;;;;5043443;28;19933;-76
2022/03/28 09:31:30;;;;;;;;;;;10.20;61.90;;;;;;5050763;28;20404;-75
2022/03/28 09:34:01;;;;;;;;;;;10.20;61.60;;;;;;5051682;28;19928;-76
2022/03/28 09:36:36;;;;;;;;;;;10.30;61.70;;;;;;5047817;28;19940;-76
2022/03/28 09:39:03;;;;;;;;;;;10.40;61.60;;;;;;5047009;28;19929;-76
2022/03/28 09:41:30;;;;;;;;;;;10.40;61.50;;;;;;5046773;28;20411;-75
2022/03/28 09:43:57;;;;;;;;;;;10.50;61.40;;;;;;5048316;28;19940;-75
2022/03/28 09:46:27;;;;;;;;;;;10.50;61.20;;;;;;5047163;28;19929;-76
2022/03/28 09:48:54;;;;;;;;;;;10.60;61.10;;;;;;5048815;28;20316;-75
2022/03/28 09:51:22;;;;;;;;;;;10.70;61.00;;;;;;5048309;28;19951;-76
2022/03/28 09:53:50;;;;;;;;;;;10.80;60.80;;;;;;5046603;28;19983;-76
2022/03/28 09:56:17;;;;;;;;;;;10.80;60.60;;;;;;5048273;28;20452;-76
2022/03/28 09:58:46;;;;;;;;;;;10.90;60.50;;;;;;5044862;28;19939;-75
2022/03/28 10:01:14;;;;;;;;;;;11.00;60.40;;;;;;5041610;28;19979;-76
2022/03/28 10:03:41;;;;;;;;;;;11.10;60.20;;;;;;5050554;28;19976;-75
2022/03/28 10:06:08;;;;;;;;;;;11.10;60.00;;;;;;5047497;28;19937;-76
2022/03/28 10:08:36;;;;;;;;;;;11.20;59.90;;;;;;5050571;28;20019;-76
2022/03/28 10:11:04;;;;;;;;;;;11.30;60.00;;;;;;5045907;28;19951;-75
2022/03/28 10:13:31;;;;;;;;;;;11.30;60.00;;;;;;5045033;28;19929;-76
2022/03/28 10:15:58;;;;;;;;;;;11.40;59.80;;;;;;5046768;28;20659;-76
2022/03/28 10:18:27;;;;;;;;;;;11.50;59.60;;;;;;5047396;28;20031;-76
2022/03/28 10:20:55;;;;;;;;;;;11.60;59.60;;;;;;5047052;28;20336;-76
2022/03/28 10:23:23;;;;;;;;;;;11.60;59.20;;;;;;5040022;28;19939;-77
2022/03/28 10:25:51;;;;;;;;;;;11.70;59.10;;;;;;5043004;28;20011;-77
2022/03/28 10:28:20;;;;;;;;;;;11.80;59.00;;;;;;5043029;28;20023;-76
2022/03/28 10:30:47;;;;;;;;;;;11.90;58.80;;;;;;5049328;28;20511;-76
2022/03/28 10:33:16;;;;;;;;;;;11.90;58.70;;;;;;5046923;28;19965;-76
2022/03/28 10:35:55;;;;;;;;;;;12.00;59.00;;;;;;5046797;28;20023;-77
2022/03/28 10:38:22;;;;;;;;;;;12.10;58.30;;;;;;5043728;28;19955;-76
2022/03/28 10:40:52;;;;;;;;;;;12.20;58.50;;;;;;5048688;28;20353;-76
2022/03/28 10:43:24;;;;;;;;;;;12.30;58.30;;;;;;5039273;28;20264;-75
2022/03/28 10:45:52;;;;;;;;;;;12.30;58.00;;;;;;5047679;28;20684;-76
2022/03/28 10:48:33;;;;;;;;;;;12.40;57.80;;;;;;5054266;28;19928;-76
2022/03/28 10:51:03;;;;;;;;;;;12.50;57.70;;;;;;5047193;28;19939;-77
2022/03/28 10:53:33;;;;;;;;;;;12.60;57.70;;;;;;5051210;28;19935;-77
2022/03/28 10:56:01;;;;;;;;;;;12.60;57.50;;;;;;5045972;28;19943;-77
2022/03/28 10:58:29;;;;;;;;;;;12.70;57.20;;;;;;5049989;28;19928;-77
2022/03/28 11:01:15;;;;;;;;;;;12.80;57.10;;;;;;5044030;28;20046;-77
2022/03/28 11:03:42;;;;;;;;;;;12.90;56.80;;;;;;5047369;28;19932;-76
2022/03/28 11:06:09;;;;;;;;;;;13.00;56.80;;;;;;5044780;28;19935;-77
2022/03/28 11:08:37;;;;;;;;;;;13.10;56.70;;;;;;5044668;28;19987;-76
2022/03/28 11:11:20;;;;;;;;;;;13.10;56.10;;;;;;5044277;28;20363;-76
2022/03/28 11:14:08;;;;;;;;;;;13.20;55.90;;;;;;5045235;28;20287;-76
2022/03/28 11:16:49;;;;;;;;;;;13.30;55.80;;;;;;5045163;28;20019;-76
2022/03/28 11:19:24;;;;;;;;;;;13.40;55.90;;;;;;5040938;28;19949;-77
2022/03/28 11:21:57;;;;;;;;;;;13.40;55.60;;;;;;5046196;28;19967;-76
2022/03/28 11:24:38;;;;;;;;;;;13.60;55.40;;;;;;5044555;28;19928;-77
2022/03/28 11:27:06;;;;;;;;;;;13.70;54.90;;;;;;5035669;28;19933;-77
2022/03/28 11:29:32;;;;;;;;;;;13.70;55.00;;;;;;5046445;28;19928;-76
2022/03/28 11:32:05;;;;;;;;;;;13.80;54.40;;;;;;5044543;28;19936;-77
2022/03/28 11:34:32;;;;;;;;;;;13.80;54.20;;;;;;5047020;28;20411;-76
2022/03/28 11:36:59;;;;;;;;;;;14.00;54.50;;;;;;5045846;28;19937;-76
2022/03/28 11:39:27;;;;;;;;;;;14.00;54.40;;;;;;5044297;28;19940;-76
2022/03/28 11:41:54;;;;;;;;;;;14.20;54.20;;;;;;5048487;28;20032;-77
2022/03/28 11:44:20;;;;;;;;;;;14.20;54.20;;;;;;5046340;28;19929;-76
2022/03/28 11:46:54;;;;;;;;;;;14.30;53.80;;;;;;5053850;28;20134;-76
2022/03/28 11:49:21;;;;;;;;;;;14.40;53.90;;;;;;5045840;28;19928;-77
2022/03/28 11:51:49;;;;;;;;;;;14.40;53.40;;;;;;5053051;28;20388;-77
2022/03/28 11:54:16;;;;;;;;;;;14.50;53.40;;;;;;5047847;28;19929;-76
2022/03/28 11:59:29;;;;;;;;;;;14.70;52.80;;;;;;5044746;28;19936;-76
2022/03/28 12:01:56;;;;;;;;;;;14.80;53.10;;;;;;5053107;28;19928;-76
2022/03/28 12:04:24;;;;;;;;;;;14.80;53.00;;;;;;5052324;28;19931;-77
2022/03/28 12:06:51;;;;;;;;;;;14.90;53.00;;;;;;5050344;28;19932;-77
2022/03/28 12:09:18;;;;;;;;;;;15.00;52.90;;;;;;5043773;28;19929;-77
2022/03/28 12:11:47;;;;;;;;;;;15.00;52.90;;;;;;5049269;28;19928;-76
2022/03/28 12:14:14;;;;;;;;;;;15.10;52.60;;;;;;5047920;28;19928;-76
2022/03/28 12:16:47;;;;;;;;;;;15.20;52.20;;;;;;5050496;28;19928;-77
2022/03/28 12:19:18;;;;;;;;;;;15.30;51.80;;;;;;5040538;28;19928;-77
2022/03/28 12:21:46;;;;;;;;;;;15.30;52.00;;;;;;5049579;28;19928;-76
2022/03/28 12:24:12;;;;;;;;;;;15.40;51.50;;;;;;5044005;28;19935;-77
2022/03/28 12:26:43;;;;;;;;;;;15.50;51.60;;;;;;5049547;28;20404;-76
2022/03/28 12:29:11;;;;;;;;;;;15.60;51.50;;;;;;5043239;28;19928;-77
2022/03/28 12:31:37;;;;;;;;;;;15.60;51.70;;;;;;5053477;28;19968;-77
2022/03/28 12:34:04;;;;;;;;;;;15.70;51.50;;;;;;5048699;28;19936;-77
2022/03/28 12:36:32;;;;;;;;;;;15.70;51.50;;;;;;5050487;28;19928;-77
2022/03/28 12:39:00;;;;;;;;;;;15.80;51.40;;;;;;5049583;28;20028;-77
2022/03/28 12:41:27;;;;;;;;;;;15.80;50.60;;;;;;5044240;28;19944;-77
2022/03/28 12:43:54;;;;;;;;;;;16.00;50.90;;;;;;5057904;28;20320;-77
2022/03/28 12:46:22;;;;;;;;;;;16.00;50.80;;;;;;5048103;28;19929;-77
2022/03/28 12:48:49;;;;;;;;;;;16.10;50.80;;;;;;5055654;28;20407;-77
2022/03/28 12:51:21;;;;;;;;;;;16.20;51.20;;;;;;5043163;28;19944;-77
2022/03/28 12:53:48;;;;;;;;;;;16.20;49.90;;;;;;5049215;28;19933;-77
2022/03/28 12:56:17;;;;;;;;;;;16.30;49.90;;;;;;5047249;28;19936;-77
2022/03/28 12:58:51;;;;;;;;;;;16.30;49.10;;;;;;5045181;28;19929;-77
2022/03/28 13:01:21;;;;;;;;;;;16.40;49.20;;;;;;5041909;28;19964;-77
2022/03/28 13:03:48;;;;;;;;;;;16.40;49.20;;;;;;5047373;28;19933;-76
2022/03/28 13:06:16;;;;;;;;;;;16.50;49.30;;;;;;5043698;28;19947;-77
2022/03/28 13:08:44;;;;;;;;;;;16.60;48.90;;;;;;5047814;28;20314;-77
2022/03/28 13:11:14;;;;;;;;;;;16.70;48.50;;;;;;5046310;28;20025;-77
2022/03/28 13:13:43;;;;;;;;;;;16.70;47.50;;;;;;5048135;28;20455;-77
2022/03/28 13:16:09;;;;;;;;;;;16.80;47.90;;;;;;5047523;28;19925;-77
2022/03/28 13:18:37;;;;;;;;;;;16.80;47.90;;;;;;5046863;28;19936;-77
2022/03/28 13:21:04;;;;;;;;;;;16.90;47.90;;;;;;5051543;28;20417;-77
2022/03/28 13:23:33;;;;;;;;;;;16.90;47.70;;;;;;5042869;28;19937;-75
2022/03/28 13:26:11;;;;;;;;;;;17.00;47.50;;;;;;5047116;28;19929;-75
2022/03/28 13:28:38;;;;;;;;;;;17.00;47.20;;;;;;5043462;28;20331;-75
2022/03/28 13:31:06;;;;;;;;;;;17.10;46.90;;;;;;5045386;28;19929;-75
2022/03/28 13:33:33;;;;;;;;;;;17.10;46.30;;;;;;5046055;28;19929;-75
2022/03/28 13:36:00;;;;;;;;;;;17.20;46.30;;;;;;5046907;28;19929;-76
2022/03/28 13:38:26;;;;;;;;;;;17.20;46.10;;;;;;5047369;28;19936;-76
2022/03/28 13:40:55;;;;;;;;;;;17.30;46.10;;;;;;5047062;28;19929;-77
2022/03/28 13:43:22;;;;;;;;;;;17.30;45.30;;;;;;5051766;28;19975;-76
2022/03/28 13:45:49;;;;;;;;;;;17.40;45.00;;;;;;5050350;28;19928;-76
2022/03/28 13:48:21;;;;;;;;;;;17.40;44.50;;;;;;5058115;28;20403;-77
2022/03/28 13:50:49;;;;;;;;;;;17.40;45.00;;;;;;5048910;28;20500;-76
2022/03/28 13:53:15;;;;;;;;;;;17.50;45.50;;;;;;5055655;28;19928;-77
2022/03/28 13:55:42;;;;;;;;;;;17.50;44.20;;;;;;5049985;28;19939;-76
2022/03/28 13:58:09;;;;;;;;;;;17.60;44.40;;;;;;5049542;28;19929;-76
2022/03/28 14:00:35;;;;;;;;;;;17.60;44.40;;;;;;5047851;28;20427;-76
2022/03/28 14:03:02;;;;;;;;;;;17.70;44.40;;;;;;5049794;28;20032;-76
2022/03/28 14:05:30;;;;;;;;;;;17.80;43.60;;;;;;5048340;28;19963;-77
2022/03/28 14:07:56;;;;;;;;;;;17.80;43.60;;;;;;5040761;28;20004;-76
2022/03/28 14:10:23;;;;;;;;;;;17.90;43.90;;;;;;5047160;28;19929;-76
2022/03/28 14:12:50;;;;;;;;;;;17.90;42.80;;;;;;5044770;28;19928;-77
2022/03/28 14:15:16;;;;;;;;;;;18.00;43.20;;;;;;5050593;28;19929;-76
2022/03/28 14:17:45;;;;;;;;;;;18.10;42.60;;;;;;5057594;28;19928;-77
2022/03/28 14:20:14;;;;;;;;;;;18.20;42.50;;;;;;5049938;28;19929;-77
2022/03/28 14:22:42;;;;;;;;;;;18.20;43.00;;;;;;5044490;28;19938;-76
2022/03/28 14:25:09;;;;;;;;;;;18.30;43.00;;;;;;5040444;28;19968;-76
2022/03/28 14:27:37;;;;;;;;;;;18.30;43.10;;;;;;5042030;28;19983;-77